createdAt,value
2023-01-07T00:04:58.961Z,38.59374
2023-01-07T00:09:59.862Z,38.57642
2023-01-07T00:15:00.829Z,38.60561
2023-01-07T00:20:01.757Z,38.65215
2023-01-07T00:25:02.798Z,38.58237
2023-01-07T00:30:03.799Z,38.6872
2023-01-07T00:35:04.798Z,38.65815
2023-01-07T00:40:05.697Z,38.79785
2023-01-07T00:45:06.712Z,39.03031
2023-01-07T00:50:07.696Z,39.01275
2023-01-07T00:55:08.645Z,38.87898
2023-01-07T01:00:09.592Z,38.83831
2023-01-07T01:05:10.532Z,38.79769
2023-01-07T01:10:11.538Z,38.84413
2023-01-07T01:15:12.486Z,38.83247
2023-01-07T01:20:13.444Z,38.82092
2023-01-07T01:25:14.418Z,39.01856
2023-01-07T01:30:15.358Z,38.96034
2023-01-07T01:35:16.333Z,39.02419
2023-01-07T01:40:17.312Z,38.87864
2023-01-07T01:45:18.270Z,38.82058
2023-01-07T01:50:19.218Z,38.96596
2023-01-07T01:55:20.192Z,39.18103
2023-01-07T02:00:21.143Z,39.1868
2023-01-07T02:05:22.088Z,39.14029
2023-01-07T02:10:23.090Z,39.18084
2023-01-07T02:15:24.055Z,39.06451
2023-01-07T02:20:24.981Z,39.14602
2023-01-07T02:25:25.964Z,39.1227
2023-01-07T02:30:26.914Z,38.86139
2023-01-07T02:35:27.864Z,38.90816
2023-01-07T02:40:28.829Z,38.96625
2023-01-07T02:45:29.806Z,38.99518
2023-01-07T02:50:30.948Z,38.95454
2023-01-07T02:55:32.388Z,38.89083
2023-01-07T03:00:33.349Z,38.76911
2023-01-07T03:05:34.411Z,38.86799
2023-01-07T03:10:35.443Z,38.98414
2023-01-07T03:15:36.422Z,38.9898
2023-01-07T03:20:37.407Z,39.1756
2023-01-07T03:25:38.385Z,39.16391
2023-01-07T03:30:39.362Z,39.21622
2023-01-07T03:35:40.325Z,39.21043
2023-01-07T03:40:41.266Z,39.44845
2023-01-07T03:45:42.277Z,39.48319
2023-01-07T03:50:43.456Z,39.52958
2023-01-07T03:55:44.450Z,39.57013
2023-01-07T04:00:45.513Z,39.6049
2023-01-07T04:05:46.497Z,39.58159
2023-01-07T04:10:47.409Z,39.68037
2023-01-07T04:15:48.359Z,39.58727
2023-01-07T04:20:49.353Z,39.4302
2023-01-07T04:25:50.357Z,39.26768
2023-01-07T04:30:51.342Z,39.44808
2023-01-07T04:35:52.335Z,39.37849
2023-01-07T04:40:53.374Z,39.50051
2023-01-07T04:45:54.362Z,39.56441
2023-01-07T04:50:55.319Z,39.69214
2023-01-07T04:55:56.362Z,39.75021
2023-01-07T05:00:57.338Z,39.55836
2023-01-07T05:05:58.309Z,39.49999
2023-01-07T05:10:59.237Z,39.41273
2023-01-07T05:16:00.183Z,39.39511
2023-01-07T05:21:01.143Z,39.32515
2023-01-07T05:26:02.179Z,39.27259
2023-01-07T05:31:03.224Z,39.13859
2023-01-07T05:36:04.216Z,39.12692
2023-01-07T05:41:05.233Z,38.87064
2023-01-07T05:46:06.292Z,39.00454
2023-01-07T05:51:07.276Z,38.90552
2023-01-07T05:56:08.209Z,38.98708
2023-01-07T06:01:09.210Z,38.93446
2023-01-07T06:06:10.269Z,38.93425
2023-01-07T06:11:11.241Z,38.93431
2023-01-07T06:16:12.277Z,38.89928
2023-01-07T06:21:13.377Z,39.01562
2023-01-07T06:26:14.318Z,39.02707
2023-01-07T06:31:15.305Z,39.01521
2023-01-07T06:36:16.223Z,38.84599
2023-01-07T06:41:17.162Z,39.06148
2023-01-07T06:46:18.225Z,38.83404
2023-01-07T06:51:19.301Z,39.00893
2023-01-07T06:56:20.254Z,38.88643
2023-01-07T07:01:21.319Z,38.88054
2023-01-07T07:06:22.350Z,39.02053
2023-01-07T07:11:23.294Z,39.05536
2023-01-07T07:16:24.367Z,38.89223
2023-01-07T07:21:25.338Z,39.16625
2023-01-07T07:26:26.304Z,39.21848
2023-01-07T07:31:27.329Z,39.18339
2023-01-07T07:36:28.322Z,39.14236
2023-01-07T07:41:29.263Z,39.16553
2023-01-07T07:46:30.280Z,39.09551
2023-01-07T07:51:31.487Z,39.20049
2023-01-07T07:56:32.785Z,39.19465
2023-01-07T08:01:36.446Z,38.99048
2023-01-07T08:06:38.217Z,39.1305
2023-01-07T08:11:39.180Z,39.10711
2023-01-07T08:16:40.158Z,39.18278
2023-01-07T08:21:41.137Z,39.07762
2023-01-07T08:26:42.087Z,39.01331
2023-01-07T08:31:43.165Z,38.93733
2023-01-07T08:36:44.158Z,38.96039
2023-01-07T08:41:45.115Z,38.98374
2023-01-07T08:46:46.233Z,38.84932
2023-01-07T08:51:47.192Z,38.64477
2023-01-07T08:56:48.210Z,38.14098
2023-01-07T09:01:49.249Z,37.99986
2023-01-07T09:06:50.331Z,37.91651
2023-01-07T09:11:51.277Z,38.04067
2023-01-07T09:16:52.280Z,38.3157
2023-01-07T09:21:53.229Z,38.40946
2023-01-07T09:26:54.202Z,38.47403
2023-01-07T09:31:55.315Z,38.40368
2023-01-07T09:36:56.289Z,38.24539
2023-01-07T09:41:57.211Z,38.09904
2023-01-07T09:52:08.727Z,37.59854
2023-01-07T09:57:09.688Z,37.3636
2023-01-07T10:02:10.618Z,36.98612
2023-01-07T10:07:11.604Z,36.97946
2023-01-07T10:12:12.531Z,37.09839
2023-01-07T10:17:13.405Z,37.11563
2023-01-07T10:22:14.354Z,36.81551
2023-01-07T10:27:15.352Z,36.68155
2023-01-07T10:32:16.274Z,36.4808
2023-01-07T10:37:17.183Z,36.42254
2023-01-07T10:42:18.166Z,36.60445
2023-01-07T10:47:19.215Z,36.42301
2023-01-07T10:52:20.118Z,36.53438
2023-01-07T10:57:21.124Z,36.37604
2023-01-07T11:02:22.350Z,36.39324
2023-01-07T11:07:23.654Z,36.22052
2023-01-07T11:12:24.589Z,35.6473
2023-01-07T11:17:25.515Z,35.8109
2023-01-07T11:22:26.448Z,35.76948
2023-01-07T11:27:27.415Z,35.75743
2023-01-07T11:32:28.365Z,35.49788
2023-01-07T11:37:29.308Z,35.48691
2023-01-07T11:42:30.256Z,35.65772
2023-01-07T11:47:31.193Z,35.4398
2023-01-07T11:52:32.445Z,35.36295
2023-01-07T11:57:33.679Z,35.23437
2023-01-07T12:02:34.713Z,35.37008
2023-01-07T12:07:35.681Z,35.33433
2023-01-07T12:12:36.612Z,35.23385
2023-01-07T12:17:37.521Z,35.15768
2023-01-07T12:22:38.429Z,35.15194
2023-01-07T12:27:39.351Z,35.15119
2023-01-07T12:32:40.318Z,34.93212
2023-01-07T12:37:41.265Z,34.88524
2023-01-07T12:42:42.191Z,34.7953
2023-01-07T12:47:43.147Z,34.61727
2023-01-07T12:52:44.335Z,34.44459
2023-01-07T12:57:45.258Z,34.22628
2023-01-07T13:02:46.177Z,34.29195
2023-01-07T13:07:47.106Z,34.29772
2023-01-07T13:12:48.079Z,34.18997
2023-01-07T13:17:49.013Z,34.06677
2023-01-07T13:22:49.964Z,33.96658
2023-01-07T13:27:50.901Z,33.79408
2023-01-07T13:32:51.867Z,33.56869
2023-01-07T13:37:52.936Z,33.51701
2023-01-07T13:42:53.870Z,33.38529
2023-01-07T13:47:54.850Z,33.4243
2023-01-07T13:52:55.824Z,33.53913
2023-01-07T13:57:56.879Z,33.70086
2023-01-07T14:02:57.909Z,33.65013
2023-01-07T14:07:58.890Z,33.88724
2023-01-07T14:12:59.785Z,33.82789
2023-01-07T14:18:00.707Z,33.82196
2023-01-07T14:23:01.615Z,33.86351
2023-01-07T14:28:02.622Z,33.86968
2023-01-07T14:33:03.543Z,33.94677
2023-01-07T14:38:04.465Z,34.04336
2023-01-07T14:43:05.398Z,34.23909
2023-01-07T14:48:06.347Z,34.24671
2023-01-07T14:53:07.309Z,34.4369
2023-01-07T14:58:08.230Z,34.63844
2023-01-07T15:03:09.190Z,34.71658
2023-01-07T15:08:10.131Z,34.92354
2023-01-07T15:13:11.076Z,35.08386
2023-01-07T15:18:12.024Z,35.16663
2023-01-07T15:23:12.992Z,35.13216
2023-01-07T15:28:14.951Z,35.13183
2023-01-07T15:33:15.900Z,35.06124
2023-01-07T15:38:16.828Z,35.06753
2023-01-07T15:43:17.727Z,35.01467
2023-01-07T15:48:18.726Z,34.92662
2023-01-07T15:53:19.696Z,34.93283
2023-01-07T15:58:20.700Z,34.96868
2023-01-07T16:03:21.629Z,34.822
2023-01-07T16:08:22.551Z,35.0102
2023-01-07T16:13:23.500Z,34.96296
2023-01-07T16:18:24.419Z,35.05674
2023-01-07T16:23:25.368Z,34.98038
2023-01-07T16:28:26.267Z,35.02205
2023-01-07T16:33:27.306Z,35.05107
2023-01-07T16:38:28.249Z,35.03933
2023-01-07T16:43:29.289Z,34.9625
2023-01-07T16:48:30.258Z,34.89155
2023-01-07T16:53:31.266Z,34.9553
2023-01-07T16:58:32.454Z,34.88492
2023-01-07T17:03:33.712Z,34.82025
2023-01-07T17:08:34.622Z,34.94397
2023-01-07T17:13:35.949Z,34.92042
2023-01-07T17:18:36.848Z,35.02601
2023-01-07T17:23:37.751Z,35.04973
2023-01-07T17:28:38.655Z,35.04917
2023-01-07T17:33:39.595Z,35.03746
2023-01-07T17:38:40.699Z,35.06685
2023-01-07T17:43:41.650Z,35.173
2023-01-07T17:48:42.645Z,35.16111
2023-01-07T17:53:43.691Z,35.0899
2023-01-07T17:58:44.602Z,35.11855
2023-01-07T18:03:45.497Z,35.05477
2023-01-07T18:08:46.684Z,35.05586
2023-01-07T18:13:47.638Z,35.06721
2023-01-07T18:18:48.579Z,35.13882
2023-01-07T18:23:49.858Z,35.16827
2023-01-07T18:28:50.789Z,35.18554
2023-01-07T18:33:51.733Z,35.15092
2023-01-07T18:38:52.673Z,35.2287
2023-01-07T18:43:53.631Z,35.35828
2023-01-07T18:48:54.609Z,35.45263
2023-01-07T18:53:55.584Z,35.58789
2023-01-07T18:58:56.489Z,35.65792
2023-01-07T19:03:57.472Z,35.64535
2023-01-07T19:08:58.421Z,35.6223
2023-01-07T19:13:59.386Z,35.59328
2023-01-07T19:19:00.327Z,35.58211
2023-01-07T19:24:01.340Z,35.49925
2023-01-07T19:29:02.427Z,35.42886
2023-01-07T19:34:03.589Z,35.41236
2023-01-07T19:39:04.548Z,35.46526
2023-01-07T19:44:05.496Z,35.395
2023-01-07T19:49:06.567Z,35.36596
2023-01-07T19:54:07.552Z,35.3665
2023-01-07T19:59:08.470Z,35.22571
2023-01-07T20:04:09.502Z,35.144
2023-01-07T20:09:10.488Z,35.05097
2023-01-07T20:14:11.470Z,34.93469
2023-01-07T20:19:12.490Z,34.91745
2023-01-07T20:24:13.521Z,34.82339
2023-01-07T20:29:14.498Z,34.68297
2023-01-07T20:34:15.437Z,34.60724
2023-01-07T20:39:16.357Z,34.65507
2023-01-07T20:44:17.310Z,34.64417
2023-01-07T20:49:18.270Z,34.60904
2023-01-07T20:54:19.195Z,34.49193
2023-01-07T20:59:20.155Z,34.49831
2023-01-07T21:04:21.112Z,34.44566
2023-01-07T21:09:22.027Z,34.37524
2023-01-07T21:14:22.981Z,34.31623
2023-01-07T21:19:23.879Z,34.25207
2023-01-07T21:24:24.792Z,34.27584
2023-01-07T21:29:25.717Z,34.20672
2023-01-07T21:34:26.652Z,34.2017
2023-01-07T21:39:27.727Z,34.23632
2023-01-07T21:44:28.666Z,34.24858
2023-01-07T21:49:29.610Z,34.17319
2023-01-07T21:54:30.533Z,34.14251
2023-01-07T21:59:31.449Z,34.06563
2023-01-07T22:04:32.657Z,33.97262
2023-01-07T22:09:33.870Z,33.94938
2023-01-07T22:14:34.824Z,33.96073
2023-01-07T22:19:35.754Z,33.85495
2023-01-07T22:24:36.678Z,33.84897
2023-01-07T22:29:37.560Z,33.80289
2023-01-07T22:34:38.480Z,33.88665
2023-01-07T22:39:39.406Z,33.95686
2023-01-07T22:44:40.338Z,33.87533
2023-01-07T22:49:41.700Z,33.91656
2023-01-07T22:54:42.821Z,33.92254
2023-01-07T22:59:45.788Z,33.91731
2023-01-07T23:04:48.033Z,33.94705
2023-01-07T23:09:50.851Z,33.95969
2023-01-07T23:14:52.617Z,34.02403
2023-01-07T23:19:53.561Z,34.03639
2023-01-07T23:24:54.565Z,34.0194
2023-01-07T23:29:55.480Z,34.03755
2023-01-07T23:34:56.414Z,34.08546
2023-01-07T23:39:57.650Z,34.12898
2023-01-07T23:44:58.581Z,34.24662
2023-01-07T23:49:59.599Z,34.26453
2023-01-07T23:55:00.512Z,34.25343
